메인 페이지
METAR-TAF:

METAR-TAF

공항 :

오데사, 우크라이나

위도: 46-26N, 경도: 030-46E, 고도: 42m

현재 날씨관측

예보는 10분 전, 18:00시(UTC)에 발표되었습니다.
서북서19kt
온도 5°C
습도 65%
기압 1010 hPa
시정 10km 이상
고도 4600ft 상공 구름 보통, 적란운.

METAR: UKOO 241800Z 30010MPS 9999 SCT046CB 05/M01 Q1010 R34/090060 NOSIG

시각: 20:10 (18:10 UTC)

예보

예보는 58분 전, 17:12시(UTC)에 발표되었습니다.
예보 대상 시간: 24일 18시부터 25일 18시까지 (UTC)
북서16kt, 순간 최대 풍속 33kt
시정: 6000m
고도 700ft 상공 구름 많음
고도 1500ft 상공 구름 보통, 적란운.
일시적
24일 18시부터 24일 24시까지 (UTC)
서북서23kt, 순간 최대 풍속 35kt
전환 중
25일 06시부터 25일 08시까지 (UTC)
남남서12kt, 순간 최대 풍속 23kt

TAF: UKOO 241712Z 2418/2518 31008G17MPS 6000 BKN007 SCT015CB TX08/2512Z TN00/2504Z TEMPO 2418/2424 29012G18MPS BECMG 2506/2508 20006G12MPS

4,000개 이상의 공항 관측 자료 및 예보 (METAR 및 TAF 보고).

지도상에서 검색 가능한 기상관측소가 노란 점과 빨간 점으로 표시되어 있습니다.

기상관측소 명을 보려면 표시 위로 마우스를 이동하세요.

날씨 관측과 예보를 보려면 클릭하세요.

지도 변경 : 확대하려면 엑스 표시가 있는 녹색 버튼, 축소하려면 빼기 표시가 있는 녹색 버튼, 다음 페이지의 지도를 보려면 녹색 화살표를 클릭하세요.


METAR-TAF: